Time;durP1;ratioP1;P1;durP2;ratioP2;P2;SDS_P1;SDS_P2;PMS_P1;PMS_P2;Temp;Humidity;BMP_temperature;BMP_pressure;BME280_temperature;BME280_humidity;BME280_pressure;Samples;Min_cycle;Max_cycle;Signal;HPM_P1;HPM_P2
2021/09/10 07:03:00;;;;;;;47.60;36.00;;;;;;;21.62;64.80;100742.63;5024803;27;1442202;-95
2021/09/10 07:05:27;;;;;;;48.60;35.20;;;;;;;21.84;64.95;100770.25;5034772;27;121656;-96
2021/09/10 07:07:53;;;;;;;47.42;36.95;;;;;;;21.74;65.07;100753.09;5010531;27;123251;-96
2021/09/10 07:10:19;;;;;;;42.17;34.17;;;;;;;21.84;64.87;100761.13;5003223;27;125320;-96
2021/09/10 07:12:44;;;;;;;52.50;37.53;;;;;;;21.87;65.40;100760.81;5005640;27;122326;-95
2021/09/10 07:15:10;;;;;;;47.17;36.42;;;;;;;21.86;65.38;100761.34;5007341;27;124869;-96
2021/09/10 07:17:36;;;;;;;47.05;37.17;;;;;;;21.84;65.14;100759.09;5006827;27;124293;-94
2021/09/10 07:20:03;;;;;;;44.30;36.13;;;;;;;21.97;64.99;100772.38;5026881;27;122252;-95
2021/09/10 07:22:34;;;;;;;47.75;37.38;;;;;;;21.90;65.35;100756.22;5025090;27;122949;-94
2021/09/10 07:24:59;;;;;;;48.88;38.38;;;;;;;21.83;65.32;100751.25;5002414;27;121759;-94
2021/09/10 07:27:25;;;;;;;48.95;37.72;;;;;;;21.96;65.84;100760.44;5001863;27;123588;-96
2021/09/10 07:29:51;;;;;;;50.08;37.42;;;;;;;22.10;65.75;100782.91;5001153;27;124756;-93
2021/09/10 07:32:16;;;;;;;52.97;37.78;;;;;;;22.12;65.68;100788.72;5009248;27;121842;-93
2021/09/10 07:34:42;;;;;;;52.15;39.00;;;;;;;22.12;65.54;100783.13;5007101;27;123636;-96
2021/09/10 07:37:08;;;;;;;49.47;37.80;;;;;;;22.07;65.43;100775.59;5007242;27;124094;-93
2021/09/10 07:39:33;;;;;;;47.03;36.35;;;;;;;22.06;65.21;100783.22;5011970;27;120876;-94
2021/09/10 07:41:59;;;;;;;46.65;37.60;;;;;;;22.12;65.46;100785.91;5024649;27;123036;-95
2021/09/10 07:44:25;;;;;;;47.95;37.40;;;;;;;22.12;65.29;100785.91;5033522;27;124534;-96
2021/09/10 07:46:54;;;;;;;52.95;39.53;;;;;;;22.20;65.73;100798.75;5006836;27;124800;-95
2021/09/10 07:49:21;;;;;;;49.50;37.92;;;;;;;22.22;65.49;100793.38;5005435;27;123665;-92
2021/09/10 07:51:50;;;;;;;50.67;38.17;;;;;;;22.26;65.54;100802.25;5006250;27;122094;-95
2021/09/10 07:54:19;;;;;;;49.08;37.00;;;;;;;22.29;65.79;100803.97;5005445;27;123265;-96
2021/09/10 07:56:44;;;;;;;47.63;37.47;;;;;;;22.32;65.28;100811.28;5008966;27;124683;-95
2021/09/10 07:59:10;;;;;;;54.45;37.70;;;;;;;22.27;65.54;100795.38;5024618;27;121225;-94
2021/09/10 08:01:36;;;;;;;49.65;37.15;;;;;;;22.42;65.46;100811.66;5005744;27;123064;-96
2021/09/10 08:04:02;;;;;;;53.47;39.17;;;;;;;22.43;65.66;100807.56;5005502;27;124486;-93
2021/09/10 08:06:37;;;;;;;51.50;40.47;;;;;;;22.56;65.68;100821.63;5011926;27;121831;-95
2021/09/10 08:09:04;;;;;;;54.22;38.97;;;;;;;22.62;65.66;100819.50;5006854;27;124308;-92
2021/09/10 08:11:30;;;;;;;52.33;39.85;;;;;;;22.69;65.31;100823.69;5005499;27;121081;-96
2021/09/10 08:13:57;;;;;;;57.20;41.03;;;;;;;22.55;65.87;100792.16;5000496;27;124576;-93
2021/09/10 08:16:23;;;;;;;56.97;40.40;;;;;;;22.79;65.34;100832.47;5013337;27;124476;-94
2021/09/10 08:18:49;;;;;;;48.90;37.22;;;;;;;22.83;65.69;100833.69;4990390;27;121838;-94
2021/09/10 08:21:15;;;;;;;53.70;39.63;;;;;;;22.89;65.04;100841.97;4993611;27;123311;-96
2021/09/10 08:23:40;;;;;;;55.00;40.85;;;;;;;22.74;65.37;100808.16;4999097;27;124435;-96
2021/09/10 08:26:06;;;;;;;61.28;41.00;;;;;;;22.99;64.75;100845.91;4994406;27;121105;-95
2021/09/10 08:28:31;;;;;;;56.78;39.75;;;;;;;23.07;65.20;100849.56;5000910;27;124465;-93
2021/09/10 08:30:57;;;;;;;48.47;34.72;;;;;;;23.10;65.27;100848.50;4996355;27;122023;-96
2021/09/10 08:33:24;;;;;;;50.10;37.78;;;;;;;23.23;65.10;100847.78;5014537;27;124591;-96
2021/09/10 08:35:49;;;;;;;49.38;37.67;;;;;;;23.33;64.86;100857.28;4997993;27;124282;-95
2021/09/10 08:38:16;;;;;;;51.88;38.45;;;;;;;23.34;64.15;100841.25;4994410;27;121849;-94
2021/09/10 08:40:45;;;;;;;48.30;36.50;;;;;;;23.52;65.02;100851.59;5013159;27;123755;-96
2021/09/10 08:43:11;;;;;;;48.17;36.63;;;;;;;23.61;64.22;100858.84;5000065;27;124834;-96
2021/09/10 08:45:37;;;;;;;59.85;42.95;;;;;;;23.48;63.86;100831.56;4999127;27;122367;-95
2021/09/10 08:48:03;;;;;;;49.38;38.42;;;;;;;23.50;64.20;100831.78;4999258;27;123560;-95
2021/09/10 08:50:28;;;;;;;56.15;38.65;;;;;;;23.65;64.31;100846.03;5005334;27;124474;-92
2021/09/10 08:52:54;;;;;;;57.80;40.85;;;;;;;23.77;63.56;100858.53;5002215;27;123445;-95
2021/09/10 08:55:20;;;;;;;48.28;35.35;;;;;;;23.86;63.61;100874.91;4992309;27;124275;-94
2021/09/10 08:57:51;;;;;;;53.58;38.72;;;;;;;23.75;64.23;100852.72;4998337;27;121764;-95
2021/09/10 09:00:30;;;;;;;58.00;37.67;;;;;;;23.91;63.84;100880.94;4989757;27;123738;-96
2021/09/10 09:03:00;;;;;;;51.90;37.47;;;;;;;23.97;63.74;100876.75;4996040;27;124621;-96
2021/09/10 09:05:29;;;;;;;53.67;37.78;;;;;;;23.94;63.62;100863.06;4994278;27;121174;-96
2021/09/10 09:08:18;;;;;;;47.33;34.83;;;;;;;23.95;63.83;100859.72;4995583;27;123964;-95
2021/09/10 09:10:53;;;;;;;54.15;38.35;;;;;;;24.21;63.46;100886.19;4996153;27;124499;-95
2021/09/10 09:13:19;;;;;;;56.13;40.63;;;;;;;24.25;64.26;100881.78;4997930;27;122198;-96
2021/09/10 09:15:46;;;;;;;54.80;39.65;;;;;;;24.31;64.26;100893.63;4990487;27;124785;-94
2021/09/10 09:18:12;;;;;;;50.85;36.38;;;;;;;24.33;63.94;100891.03;4992220;27;121789;-93
2021/09/10 09:20:38;;;;;;;48.92;36.13;;;;;;;24.28;63.56;100875.09;4992904;27;123418;-93
2021/09/10 09:23:07;;;;;;;51.28;37.15;;;;;;;24.51;63.68;100894.25;5007811;27;124664;-96
2021/09/10 09:25:45;;;;;;;54.67;37.50;;;;;;;24.63;63.42;100898.34;4988176;27;122090;-94
2021/09/10 09:28:25;;;;;;;62.65;42.30;;;;;;;24.65;64.05;100898.53;5003977;27;122887;-94
2021/09/10 09:30:55;;;;;;;54.42;39.42;;;;;;;24.54;62.95;100865.13;4989824;27;125600;-95
2021/09/10 09:33:25;;;;;;;54.55;38.45;;;;;;;24.68;63.14;100872.97;4999148;27;121761;-95
2021/09/10 09:35:55;;;;;;;45.00;32.28;;;;;;;24.83;62.92;100889.19;4997457;27;124697;-96
2021/09/10 09:38:26;;;;;;;49.08;34.47;;;;;;;24.73;62.95;100874.88;4995662;27;121091;-96
2021/09/10 09:40:57;;;;;;;53.28;36.80;;;;;;;24.90;62.86;100888.53;5005449;27;123324;-93
2021/09/10 09:43:31;;;;;;;53.53;36.13;;;;;;;24.93;63.09;100898.66;4994022;27;124938;-96
2021/09/10 09:45:58;;;;;;;50.42;34.80;;;;;;;24.84;62.88;100887.13;5011960;27;121914;-95
2021/09/10 09:48:26;;;;;;;52.42;36.95;;;;;;;24.95;62.71;100903.72;4992110;27;123300;-94
2021/09/10 09:50:54;;;;;;;53.95;36.58;;;;;;;24.92;63.19;100904.81;5004246;27;124731;-94
2021/09/10 09:53:22;;;;;;;48.33;34.03;;;;;;;24.85;62.72;100897.81;4986458;27;122661;-94
2021/09/10 09:55:48;;;;;;;44.42;32.53;;;;;;;24.96;62.61;100913.63;5000037;27;124551;-92
2021/09/10 09:58:15;;;;;;;40.83;30.67;;;;;;;24.96;62.43;100914.38;4986080;27;122268;-92
2021/09/10 10:00:42;;;;;;;41.63;29.13;;;;;;;24.97;62.87;100913.09;5002330;27;123403;-94
2021/09/10 10:03:08;;;;;;;41.60;28.95;;;;;;;24.92;62.42;100904.81;4985351;27;124106;-93
2021/09/10 10:06:03;;;;;;;39.50;26.85;;;;;;;24.99;62.58;100915.38;4978405;27;121926;-94
2021/09/10 10:08:58;;;;;;;40.28;28.13;;;;;;;24.98;62.56;100911.78;5483835;22;124589;-96
2021/09/10 10:11:47;;;;;;;37.78;25.42;;;;;;;24.83;62.57;100889.19;4960454;28;125890;-94
2021/09/10 10:14:15;;;;;;;43.92;29.10;;;;;;;24.63;62.55;100859.06;4974896;28;121169;-96
2021/09/10 10:16:46;;;;;;;41.65;28.48;;;;;;;24.70;62.81;100852.78;4968458;28;123084;-94
2021/09/10 10:19:21;;;;;;;42.05;29.27;;;;;;;25.02;62.45;100905.84;5259866;22;124312;-96
2021/09/10 10:22:01;;;;;;;45.03;31.02;;;;;;;25.03;62.25;100899.69;4985335;28;123891;-96
2021/09/10 10:24:49;;;;;;;44.13;30.40;;;;;;;24.69;62.46;100846.41;4972082;28;124130;-95
2021/09/10 10:27:40;;;;;;;44.58;31.35;;;;;;;25.02;63.06;100889.03;4956066;28;121181;-95
2021/09/10 10:30:28;;;;;;;40.30;27.98;;;;;;;25.02;63.04;100895.38;4943354;28;123542;-96
2021/09/10 10:32:54;;;;;;;35.60;24.90;;;;;;;25.02;62.77;100895.38;4937612;28;124398;-95
2021/09/10 10:35:25;;;;;;;35.70;26.17;;;;;;;25.03;62.76;100891.28;4937757;27;122023;-96
2021/09/10 10:38:12;;;;;;;36.95;26.55;;;;;;;24.66;62.90;100838.34;4972540;28;123579;-96
2021/09/10 10:40:37;;;;;;;33.75;23.63;;;;;;;25.06;62.58;100890.19;4926224;28;124346;-96
2021/09/10 10:43:20;;;;;;;33.15;22.25;;;;;;;24.77;62.80;100857.69;4945152;28;121616;-96
2021/09/10 10:45:46;;;;;;;29.98;19.67;;;;;;;25.05;62.61;100893.53;4956116;28;124313;-95
2021/09/10 10:48:33;;;;;;;31.67;21.35;;;;;;;25.02;62.61;100889.78;4957716;27;121281;-96
2021/09/10 10:51:19;;;;;;;29.05;19.80;;;;;;;25.00;62.99;100889.56;4966005;28;124104;-96
2021/09/10 10:53:45;;;;;;;26.98;18.55;;;;;;;24.97;62.44;100882.22;4957166;28;124448;-96
2021/09/10 10:56:33;;;;;;;28.95;18.63;;;;;;;24.95;62.33;100882.00;4950046;28;121098;-95
2021/09/10 10:59:11;;;;;;;26.38;18.92;;;;;;;24.92;62.49;100871.88;4971146;28;123550;-93
2021/09/10 11:04:41;;;;;;;29.45;19.73;;;;;;;24.87;62.78;100869.22;4964134;28;121906;-96
2021/09/10 11:07:08;;;;;;;26.90;18.00;;;;;;;24.87;63.06;100869.22;4945059;28;123940;-96
2021/09/10 11:09:34;;;;;;;25.08;17.48;;;;;;;24.87;62.81;100869.22;4968703;28;121755;-96
2021/09/10 11:12:00;;;;;;;25.98;17.83;;;;;;;24.86;62.73;100870.53;4956368;28;123542;-96
2021/09/10 11:14:34;;;;;;;24.90;17.50;;;;;;;24.85;63.13;100872.56;4938630;28;124576;-96
2021/09/10 11:17:13;;;;;;;29.42;18.08;;;;;;;24.84;62.94;100867.47;4947878;28;121756;-96
2021/09/10 11:19:47;;;;;;;26.65;18.55;;;;;;;24.82;62.95;100865.22;4955461;28;123651;-96
2021/09/10 11:22:15;;;;;;;28.90;17.83;;;;;;;24.83;63.31;100865.97;4954643;28;124466;-96
2021/09/10 11:24:42;;;;;;;24.60;18.35;;;;;;;24.80;63.35;100856.59;4955487;28;121091;-95
2021/09/10 11:27:27;;;;;;;28.15;18.33;;;;;;;24.83;63.34;100861.13;4950808;28;123225;-96
2021/09/10 11:29:54;;;;;;;27.00;17.85;;;;;;;24.70;62.81;100836.69;4971745;28;121435;-96
2021/09/10 11:32:26;;;;;;;27.70;19.35;;;;;;;24.71;63.16;100826.22;4961086;27;123091;-96
2021/09/10 11:34:53;;;;;;;25.23;17.38;;;;;;;24.63;63.05;100805.78;4956166;28;125402;-95
2021/09/10 11:37:27;;;;;;;19.70;13.13;;;;;;;24.70;62.92;100799.47;4964537;28;121106;-96
2021/09/10 11:39:54;;;;;;;16.13;12.07;;;;;;;24.94;62.84;100827.19;4957875;28;124457;-96
2021/09/10 11:42:35;;;;;;;19.42;12.68;;;;;;;24.77;62.26;100796.00;4956412;28;124373;-96
2021/09/10 11:45:13;;;;;;;21.27;12.75;;;;;;;24.79;62.07;100804.59;4962818;28;121645;-94
2021/09/10 11:47:41;;;;;;;18.42;12.95;;;;;;;24.82;61.99;100800.69;4962059;28;123596;-96
2021/09/10 11:50:10;;;;;;;21.05;14.02;;;;;;;24.85;61.70;100796.06;4949054;28;124329;-95
2021/09/10 11:52:38;;;;;;;21.77;13.02;;;;;;;24.85;61.64;100799.63;4954637;28;123122;-96
2021/09/10 11:55:16;;;;;;;20.83;12.88;;;;;;;25.20;61.59;100845.97;4943633;28;124325;-94
2021/09/10 11:57:45;;;;;;;19.63;12.73;;;;;;;24.89;61.66;100805.66;4970941;28;121182;-96
2021/09/10 12:00:27;;;;;;;18.73;13.25;;;;;;;25.01;61.79;100822.97;4958104;28;124496;-96
2021/09/10 12:02:58;;;;;;;19.48;12.60;;;;;;;25.05;61.46;100829.75;4975451;28;124871;-96
2021/09/10 12:05:24;;;;;;;16.05;12.40;;;;;;;25.08;61.42;100825.88;4956580;28;122355;-96
2021/09/10 12:07:59;;;;;;;14.15;10.82;;;;;;;25.20;61.64;100842.41;4964623;28;123554;-96
2021/09/10 12:10:33;;;;;;;15.18;11.68;;;;;;;25.31;61.40;100858.94;4976518;28;124362;-96
2021/09/10 12:13:10;;;;;;;19.52;11.35;;;;;;;24.97;61.18;100809.25;5074512;22;125846;-96
2021/09/10 12:58:21;;;;;;;5.35;3.72;;;;;;;25.13;60.65;100845.91;5220658;23;126035;-96
2021/09/10 13:00:48;;;;;;;7.18;4.45;;;;;;;25.37;59.92;100879.22;4844898;28;122263;-96
2021/09/10 13:03:16;;;;;;;5.88;4.43;;;;;;;25.22;60.49;100865.06;4846950;28;123534;-96
2021/09/10 13:05:43;;;;;;;9.95;5.35;;;;;;;25.24;60.13;100860.41;4848764;28;124327;-96
2021/09/10 13:08:09;;;;;;;10.27;5.70;;;;;;;25.06;60.47;100845.28;4831298;28;123540;-96
2021/09/10 13:10:40;;;;;;;10.63;6.30;;;;;;;25.40;60.27;100890.13;5037841;23;125796;-93
2021/09/10 13:16:10;;;;;;;13.88;9.38;;;;;;;25.22;60.95;100870.69;4958651;23;123789;-95
2021/09/10 13:18:39;;;;;;;16.95;12.38;;;;;;;25.16;60.83;100858.84;4838083;28;124433;-96
2021/09/10 13:21:05;;;;;;;18.20;11.90;;;;;;;25.34;61.24;100877.53;4841480;28;121851;-96
2021/09/10 13:23:31;;;;;;;21.25;14.60;;;;;;;25.42;61.21;100880.38;4824470;28;123726;-96
2021/09/10 13:25:59;;;;;;;20.13;12.45;;;;;;;25.12;61.19;100836.00;4838977;28;123946;-95
2021/09/10 13:28:25;;;;;;;17.77;11.48;;;;;;;25.47;61.31;100883.03;4832630;28;121247;-93
2021/09/10 13:30:51;;;;;;;16.27;10.35;;;;;;;25.50;61.37;100887.56;4826597;28;124450;-96
2021/09/10 13:33:17;;;;;;;16.42;10.25;;;;;;;25.40;61.33;100864.09;4829706;28;121647;-96
2021/09/10 13:35:45;;;;;;;13.25;8.77;;;;;;;25.60;61.44;100871.72;4826734;28;123386;-96
2021/09/10 13:38:16;;;;;;;11.00;7.63;;;;;;;25.56;60.59;100867.78;4845590;28;124491;-95
2021/09/10 13:40:43;;;;;;;11.68;7.22;;;;;;;25.57;60.59;100853.19;4824736;28;121948;-96
2021/09/10 13:43:12;;;;;;;6.93;5.32;;;;;;;25.72;60.53;100866.56;4825469;28;123445;-95
2021/09/10 13:45:42;;;;;;;6.75;4.78;;;;;;;25.46;60.30;100828.19;4829697;28;124442;-96
2021/09/10 13:48:10;;;;;;;7.05;4.70;;;;;;;25.84;60.34;100875.47;4829099;28;121166;-96
2021/09/10 13:50:37;;;;;;;6.65;4.47;;;;;;;25.51;59.60;100830.09;4841357;28;124530;-96
2021/09/10 13:53:04;;;;;;;6.30;3.90;;;;;;;25.76;59.43;100854.97;4839352;28;121278;-96
2021/09/10 13:55:31;;;;;;;5.78;3.38;;;;;;;25.53;59.35;100830.28;4822267;28;123178;-94
2021/09/10 13:58:05;;;;;;;4.93;2.88;;;;;;;25.56;59.22;100829.19;4824465;28;124538;-96
2021/09/10 14:00:33;;;;;;;5.72;2.67;;;;;;;25.79;59.27;100856.69;4847562;28;121186;-96
2021/09/10 14:02:59;;;;;;;5.05;2.97;;;;;;;25.79;59.43;100851.06;4831732;28;123695;-96
2021/09/10 14:05:26;;;;;;;3.88;2.97;;;;;;;25.78;59.25;100852.38;4834996;28;124624;-96
2021/09/10 14:07:52;;;;;;;4.47;2.70;;;;;;;25.56;59.31;100820.78;4824851;28;121149;-96
2021/09/10 14:10:20;;;;;;;5.22;2.63;;;;;;;25.74;58.78;100851.97;4827164;29;123329;-92
2021/09/10 14:15:47;;;;;;;5.70;2.95;;;;;;;25.60;58.95;100845.69;2858675;23;128532;-96
2021/09/10 14:18:16;;;;;;;5.40;3.05;;;;;;;25.56;58.80;100848.84;4850672;28;124558;-96
2021/09/10 14:20:46;;;;;;;3.33;3.03;;;;;;;25.37;59.35;100823.81;4825150;28;121199;-96
2021/09/10 14:23:17;;;;;;;5.18;3.22;;;;;;;25.66;59.26;100886.38;4836799;28;122916;-96
2021/09/10 14:25:50;;;;;;;6.63;3.70;;;;;;;25.23;59.15;100827.28;4855215;28;123407;-95
2021/09/10 14:28:52;;;;;;;4.68;3.13;;;;;;;25.53;59.10;100880.84;5244713;23;123320;31
2021/09/10 14:31:20;;;;;;;5.25;3.60;;;;;;;25.45;59.00;100890.50;4819222;29;123333;-95
2021/09/10 14:33:47;;;;;;;6.75;3.72;;;;;;;25.22;59.40;100865.81;4819118;28;124412;-96
2021/09/10 14:36:13;;;;;;;5.38;3.63;;;;;;;25.03;59.58;100843.56;4797048;29;123555;-95
2021/09/10 14:38:39;;;;;;;5.20;3.72;;;;;;;25.34;59.35;100883.91;4979335;23;124374;-96
2021/09/10 14:41:07;;;;;;;4.13;3.35;;;;;;;25.10;59.31;100847.75;4831316;29;122545;-96
2021/09/10 14:43:33;;;;;;;6.40;3.67;;;;;;;25.36;59.89;100884.09;4825202;29;123517;-96
2021/09/10 14:45:59;;;;;;;4.68;3.63;;;;;;;25.24;59.96;100870.88;4837001;29;124626;-96
2021/09/10 14:51:14;;;;;;;4.70;4.07;;;;;;;25.02;59.83;100844.88;5372006;23;123423;-96
2021/09/10 14:53:43;;;;;;;4.63;3.65;;;;;;;24.99;59.70;100842.41;4810562;28;124232;-96
2021/09/10 14:56:09;;;;;;;5.38;4.00;;;;;;;24.97;59.86;100840.13;4813343;29;121939;-95
2021/09/10 14:58:35;;;;;;;7.13;4.57;;;;;;;25.33;59.99;100904.09;4807002;29;124628;-95
2021/09/10 15:01:02;;;;;;;5.47;4.22;;;;;;;25.16;60.08;100875.69;4811549;28;121127;-95
2021/09/10 15:03:28;;;;;;;7.05;4.53;;;;;;;25.04;60.06;100864.72;4813963;29;123642;-96
2021/09/10 15:05:54;;;;;;;7.80;4.88;;;;;;;24.85;60.27;100846.56;4824456;28;124814;-95
2021/09/10 15:08:20;;;;;;;5.75;4.18;;;;;;;24.84;59.67;100843.00;4810557;29;121205;-96
2021/09/10 15:10:46;;;;;;;6.55;5.15;;;;;;;24.80;60.21;100851.00;4808070;29;123611;-95
2021/09/10 15:13:12;;;;;;;5.72;4.25;;;;;;;25.13;59.95;100904.84;4820497;28;124685;-95
2021/09/10 15:15:41;;;;;;;7.45;4.57;;;;;;;25.00;60.27;100889.56;4812742;29;121120;-96
2021/09/10 15:18:09;;;;;;;5.82;4.38;;;;;;;24.69;60.54;100856.88;4811982;29;124615;-93
2021/09/10 15:20:35;;;;;;;6.25;5.07;;;;;;;24.71;60.14;100855.03;4817355;29;122077;-96
2021/09/10 15:23:01;;;;;;;5.50;4.45;;;;;;;24.90;60.37;100894.13;4809959;28;123354;-96
2021/09/10 15:25:27;;;;;;;7.22;4.78;;;;;;;25.03;60.43;100905.31;4834485;28;124460;-96
2021/09/10 15:27:53;;;;;;;6.47;4.90;;;;;;;24.62;60.72;100840.75;4810274;29;121199;-94
2021/09/10 15:42:15;;;;;;;9.93;4.97;;;;;;;25.17;60.64;100889.16;5891426;23;123852;31
2021/09/10 15:44:41;;;;;;;7.70;5.05;;;;;;;24.84;60.42;100839.44;4844322;28;123806;-96
2021/09/10 15:47:13;;;;;;;6.25;4.35;;;;;;;24.83;60.30;100838.69;4861246;28;124966;-96
2021/09/10 15:55:34;;;;;;;6.32;4.57;;;;;;;24.89;60.71;100844.94;4977924;23;122953;-96
2021/09/10 15:58:01;;;;;;;5.18;4.60;;;;;;;25.16;60.60;100886.91;4837313;23;121179;-96
2021/09/10 16:00:30;;;;;;;4.60;4.10;;;;;;;24.90;60.66;100843.63;4839477;28;123932;-96
2021/09/10 16:15:15;;;;;;;7.90;6.00;;;;;;;24.87;60.79;100833.50;4582556;26;128963;-95
2021/09/10 16:17:40;;;;;;;8.82;5.22;;;;;;;25.21;60.90;100874.78;4858784;28;124294;-94
2021/09/10 16:20:09;;;;;;;8.45;5.07;;;;;;;25.03;61.00;100857.59;4849068;28;122079;-94
2021/09/10 16:22:36;;;;;;;8.45;6.05;;;;;;;25.17;61.30;100872.31;4880866;28;121780;-95
2021/09/10 16:25:04;;;;;;;8.20;5.40;;;;;;;25.06;61.26;100866.97;4852484;28;124745;-95
2021/09/10 16:27:30;;;;;;;6.40;5.10;;;;;;;24.94;61.38;100849.66;4862046;28;121716;-95
2021/09/10 16:29:56;;;;;;;8.68;6.03;;;;;;;25.13;60.96;100882.41;4843145;28;124405;-94
2021/09/10 16:32:22;;;;;;;10.00;6.53;;;;;;;25.03;61.38;100866.03;4844890;28;121121;-96
2021/09/10 16:34:48;;;;;;;7.68;6.40;;;;;;;24.90;61.47;100849.25;4837998;28;123434;-95
2021/09/10 16:37:14;;;;;;;9.13;6.60;;;;;;;24.92;61.63;100857.84;4854906;28;124463;-96
2021/09/10 16:39:40;;;;;;;8.90;6.13;;;;;;;24.93;61.90;100867.78;4857074;28;121199;-95
2021/09/10 16:42:06;;;;;;;11.25;7.30;;;;;;;24.95;61.50;100872.84;4859283;28;123597;-94
2021/09/10 16:44:32;;;;;;;10.88;8.15;;;;;;;24.83;61.76;100858.31;4840469;28;123962;-94
2021/09/10 16:46:57;;;;;;;9.68;7.57;;;;;;;24.95;61.73;100876.41;4856813;28;122570;-95
2021/09/10 16:49:23;;;;;;;13.50;8.00;;;;;;;24.91;61.44;100876.00;4844640;28;123389;-95
2021/09/10 16:51:49;;;;;;;10.75;8.02;;;;;;;24.76;62.08;100856.19;4865208;28;121117;-96
2021/09/10 16:54:15;;;;;;;11.43;7.60;;;;;;;24.79;61.64;100867.06;4846485;28;123608;-95
2021/09/10 16:56:41;;;;;;;10.82;8.20;;;;;;;24.80;61.84;100874.19;4864925;28;124443;-95
2021/09/10 16:59:06;;;;;;;10.40;7.88;;;;;;;24.82;62.32;100876.44;4855576;28;121207;-95
2021/09/10 17:01:35;;;;;;;12.05;8.50;;;;;;;24.68;61.98;100855.38;4870854;28;123380;-96
2021/09/10 17:04:01;;;;;;;11.93;8.10;;;;;;;24.48;62.23;100826.75;4842495;28;124469;-96
2021/09/10 17:06:28;;;;;;;11.27;7.63;;;;;;;24.72;61.76;100859.34;4838414;28;121726;-95
2021/09/10 17:08:54;;;;;;;9.95;7.85;;;;;;;24.84;62.26;100887.13;4856183;28;123398;-95
2021/09/10 17:11:20;;;;;;;10.00;7.70;;;;;;;24.68;62.19;100870.16;4848304;28;124599;-96
2021/09/10 17:13:45;;;;;;;9.90;7.85;;;;;;;24.70;62.27;100869.59;4838530;28;124605;-96
2021/09/10 17:16:11;;;;;;;11.45;7.45;;;;;;;24.58;62.41;100860.69;4854234;28;124200;-95
2021/09/10 17:18:37;;;;;;;12.45;8.65;;;;;;;24.77;62.10;100897.72;4851947;28;123363;-94
2021/09/10 17:21:03;;;;;;;11.70;9.07;;;;;;;24.76;62.28;100898.28;4845648;28;125359;-94
2021/09/10 17:23:28;;;;;;;12.98;8.43;;;;;;;24.75;62.27;100896.75;4854292;28;124684;-94
2021/09/10 17:25:54;;;;;;;10.82;8.23;;;;;;;24.74;62.48;100903.69;4859545;28;121862;-96
2021/09/10 17:28:20;;;;;;;11.45;8.55;;;;;;;24.69;62.64;100891.28;4834048;28;123503;-95
2021/09/10 17:30:45;;;;;;;10.30;8.13;;;;;;;24.56;62.23;100880.09;4855961;28;124780;-95
2021/09/10 17:33:14;;;;;;;10.60;8.55;;;;;;;24.56;62.82;100882.16;4856612;28;121669;-94
2021/09/10 17:35:39;;;;;;;14.50;8.02;;;;;;;24.60;62.68;100897.34;4857982;28;124628;-94
2021/09/10 17:38:05;;;;;;;11.65;7.68;;;;;;;24.66;62.49;100909.22;4832761;28;123153;-94
2021/09/10 17:40:30;;;;;;;11.35;7.63;;;;;;;24.57;62.72;100887.22;4843484;28;123703;-94
2021/09/10 17:42:56;;;;;;;14.93;7.90;;;;;;;24.62;62.89;100896.81;4840057;28;124807;-95
2021/09/10 17:45:23;;;;;;;8.93;7.75;;;;;;;24.36;62.99;100878.75;4853704;28;121675;-94
2021/09/10 17:47:48;;;;;;;13.02;9.18;;;;;;;24.55;63.09;100889.81;4843025;28;123452;-95
2021/09/10 17:50:14;;;;;;;12.05;8.07;;;;;;;24.53;62.99;100898.00;4840944;28;124661;-95
2021/09/10 17:52:40;;;;;;;12.90;8.38;;;;;;;24.19;62.58;100844.69;4852407;28;121679;-95
2021/09/10 17:55:09;;;;;;;11.75;7.78;;;;;;;24.36;63.16;100873.13;4857510;28;123019;-96
2021/09/10 17:57:35;;;;;;;9.50;7.47;;;;;;;24.52;63.37;100901.38;4843145;28;122493;-96
2021/09/10 18:02:57;;;;;;;11.00;7.75;;;;;;;24.52;63.64;100901.38;5270068;23;123752;-96
2021/09/10 18:05:22;;;;;;;14.05;8.48;;;;;;;24.31;63.59;100862.81;4821519;28;121143;-96
2021/09/10 18:07:51;;;;;;;13.25;8.98;;;;;;;24.47;63.87;100892.53;4820048;29;123494;-95
2021/09/10 18:10:17;;;;;;;14.68;10.48;;;;;;;24.45;63.85;100889.53;4822773;28;124705;-96
2021/09/10 18:12:43;;;;;;;14.63;9.57;;;;;;;24.42;63.54;100887.81;4841382;28;124443;-96
2021/09/10 18:15:09;;;;;;;13.30;9.82;;;;;;;24.44;63.56;100885.22;4804518;29;124067;-96
2021/09/10 18:17:35;;;;;;;12.95;8.40;;;;;;;24.42;63.71;100890.63;4810360;28;122562;-96
2021/09/10 18:20:05;;;;;;;10.40;7.63;;;;;;;24.36;64.12;100878.75;4819995;28;123709;-96
2021/09/10 18:22:31;;;;;;;9.32;7.15;;;;;;;24.29;63.87;100871.00;4806977;28;124470;-96
2021/09/10 18:24:59;;;;;;;10.88;7.65;;;;;;;24.37;63.74;100891.50;4804750;28;122708;-96
2021/09/10 18:27:29;;;;;;;11.05;8.10;;;;;;;24.16;64.18;100863.38;4819151;28;123321;-96
2021/09/10 18:29:56;;;;;;;11.55;8.82;;;;;;;24.34;64.17;100903.75;4820751;28;124350;-96
2021/09/10 18:32:21;;;;;;;14.13;8.48;;;;;;;24.33;64.25;100901.50;4808444;29;121166;-96
2021/09/10 18:34:47;;;;;;;11.88;7.88;;;;;;;24.07;64.20;100883.41;4806328;28;123298;-96
2021/09/10 18:37:13;;;;;;;11.55;8.32;;;;;;;23.97;64.25;100867.59;4802765;29;124351;-96
2021/09/10 18:39:39;;;;;;;13.93;9.30;;;;;;;24.13;64.49;100891.69;4796386;29;123357;-96
2021/09/10 18:42:05;;;;;;;12.68;9.82;;;;;;;24.24;64.63;100908.28;4801595;29;124668;-96
2021/09/10 18:44:30;;;;;;;16.42;9.52;;;;;;;24.08;64.46;100889.75;4816433;29;121245;-96
2021/09/10 18:46:56;;;;;;;12.50;9.02;;;;;;;24.03;64.39;100893.44;4807765;28;124800;-95
2021/09/10 19:00:38;;;;;;;15.55;11.52;;;;;;;24.10;65.06;100937.59;5087007;23;123196;-96
2021/09/10 19:03:04;;;;;;;15.02;10.63;;;;;;;23.74;64.93;100884.81;4819514;28;124896;-96
2021/09/10 19:05:31;;;;;;;13.27;11.02;;;;;;;23.72;65.24;100879.00;4804488;28;121272;-96
2021/09/10 19:07:59;;;;;;;17.92;11.18;;;;;;;23.70;65.08;100872.44;4812174;29;123551;-96
2021/09/10 19:10:25;;;;;;;13.43;10.00;;;;;;;24.02;65.06;100917.13;4816470;29;124110;-96
2021/09/10 19:12:51;;;;;;;13.23;9.95;;;;;;;23.94;64.93;100916.28;4804517;29;121725;-96
2021/09/10 19:15:19;;;;;;;13.23;9.98;;;;;;;24.04;64.93;100926.50;4817169;28;123303;-96
2021/09/10 19:17:48;;;;;;;12.55;9.60;;;;;;;23.85;64.97;100895.78;4869771;23;124453;-96
2021/09/10 19:20:18;;;;;;;14.02;10.48;;;;;;;23.63;65.20;100873.81;4820223;29;121153;-96
2021/09/10 19:22:51;;;;;;;11.00;9.10;;;;;;;24.01;65.42;100935.25;4831929;29;123742;-95
2021/09/10 19:25:19;;;;;;;13.63;9.77;;;;;;;23.60;64.86;100877.69;5133610;23;123399;-96
2021/09/10 19:27:53;;;;;;;14.77;10.55;;;;;;;23.68;65.71;100900.97;4847635;28;123360;-96
2021/09/10 19:30:19;;;;;;;14.43;11.48;;;;;;;23.61;65.66;100892.44;4822158;28;123994;-96
2021/09/10 19:32:45;;;;;;;14.13;11.20;;;;;;;23.57;65.14;100899.13;4809902;29;121571;-96
2021/09/10 19:35:11;;;;;;;17.33;13.82;;;;;;;23.95;65.42;100959.81;4823348;28;123516;-96
2021/09/10 19:37:40;;;;;;;20.30;15.10;;;;;;;23.56;65.30;100911.59;4820877;28;124300;-95
2021/09/10 19:40:12;;;;;;;20.33;14.20;;;;;;;23.94;65.73;100972.31;4821234;28;121229;-96
2021/09/10 19:42:38;;;;;;;16.88;13.07;;;;;;;23.69;65.73;100926.94;4807448;29;124152;-96
2021/09/10 19:51:26;;;;;;;16.00;12.85;;;;;;;23.85;66.07;100960.22;5515231;23;123609;-96
2021/09/10 19:53:52;;;;;;;14.95;12.90;;;;;;;23.47;66.17;100900.06;4841617;28;122000;-96
2021/09/10 19:56:19;;;;;;;15.05;12.15;;;;;;;23.51;65.92;100911.69;4837172;28;123328;-96
2021/09/10 19:58:49;;;;;;;16.02;11.73;;;;;;;23.43;65.73;100897.56;4826106;28;124307;-96
2021/09/10 20:01:16;;;;;;;13.50;10.68;;;;;;;23.45;65.67;100903.38;4823295;28;122727;-96